Time;durP1;ratioP1;P1;durP2;ratioP2;P2;SDS_P1;SDS_P2;PMS_P1;PMS_P2;Temp;Humidity;BMP_temperature;BMP_pressure;BME280_temperature;BME280_humidity;BME280_pressure;Samples;Min_cycle;Max_cycle;Signal;HPM_P1;HPM_P2
2022/12/05 00:01:34;;;;;;;52.67;23.77;;;2.40;99.90;;;;;;5011914;28;20029;-45
2022/12/05 00:04:03;;;;;;;59.17;26.10;;;2.40;99.90;;;;;;5012230;28;20623;-46
2022/12/05 00:06:30;;;;;;;51.87;24.63;;;2.40;99.90;;;;;;5011845;28;20049;-51
2022/12/05 00:08:56;;;;;;;53.43;24.27;;;2.40;99.90;;;;;;5011741;28;20513;-49
2022/12/05 00:11:26;;;;;;;50.87;24.33;;;2.50;99.90;;;;;;5012035;28;20091;-46
2022/12/05 00:13:53;;;;;;;56.25;24.60;;;2.50;99.90;;;;;;5012128;28;20406;-46
2022/12/05 00:16:21;;;;;;;52.90;24.27;;;2.50;99.90;;;;;;5023736;23;20057;-51
2022/12/05 00:18:47;;;;;;;54.10;24.83;;;2.50;99.90;;;;;;5011315;28;20277;-52
2022/12/05 00:21:16;;;;;;;55.70;23.80;;;2.50;99.90;;;;;;5011672;28;20542;-53
2022/12/05 00:23:42;;;;;;;51.97;24.80;;;2.40;99.90;;;;;;5011804;28;20164;-51
2022/12/05 00:26:08;;;;;;;51.83;24.83;;;2.50;99.90;;;;;;5011797;28;20030;-51
2022/12/05 00:28:34;;;;;;;54.80;24.50;;;2.40;99.90;;;;;;5011317;28;20402;-53
2022/12/05 00:31:20;;;;;;;54.53;24.87;;;2.40;99.90;;;;;;5011566;28;20037;-52
2022/12/05 00:33:47;;;;;;;50.73;24.73;;;2.40;99.90;;;;;;5011594;28;20022;-49
2022/12/05 00:36:16;;;;;;;55.07;25.27;;;2.50;99.90;;;;;;5011692;28;20037;-51
2022/12/05 00:38:42;;;;;;;54.45;25.65;;;2.50;99.90;;;;;;5011630;28;20442;-52
2022/12/05 00:41:17;;;;;;;51.33;23.83;;;2.50;99.90;;;;;;5011529;28;20406;-48
2022/12/05 00:43:44;;;;;;;53.27;24.27;;;2.50;99.90;;;;;;5010202;28;20084;-50
2022/12/05 00:46:13;;;;;;;56.20;26.20;;;2.50;99.90;;;;;;5011174;28;20486;-53
2022/12/05 00:48:39;;;;;;;56.75;25.77;;;2.40;99.90;;;;;;5010905;28;20483;-51
2022/12/05 00:51:07;;;;;;;49.77;24.80;;;2.40;99.90;;;;;;5011261;28;20044;-52
2022/12/05 00:53:33;;;;;;;52.57;24.97;;;2.50;99.90;;;;;;5011190;28;20033;-53
2022/12/05 00:56:08;;;;;;;51.57;24.10;;;2.50;99.90;;;;;;5011272;28;20052;-51
2022/12/05 00:58:35;;;;;;;52.67;24.30;;;2.50;99.90;;;;;;5010705;28;20025;-50
2022/12/05 01:01:06;;;;;;;50.73;24.07;;;2.50;99.90;;;;;;5011241;28;20379;-51
2022/12/05 01:03:32;;;;;;;56.67;27.10;;;2.50;99.90;;;;;;5011019;28;20092;-48
2022/12/05 01:05:58;;;;;;;48.77;23.80;;;2.50;99.90;;;;;;5011066;28;20026;-48
2022/12/05 01:08:24;;;;;;;54.17;25.10;;;2.50;99.90;;;;;;5010698;28;20479;-51
2022/12/05 01:10:54;;;;;;;53.90;24.50;;;2.50;99.90;;;;;;5010762;28;20088;-48
2022/12/05 01:13:21;;;;;;;47.00;23.60;;;2.50;99.90;;;;;;5010816;28;20026;-51
2022/12/05 01:15:47;;;;;;;50.97;23.30;;;2.60;99.90;;;;;;5010722;28;20037;-50
2022/12/05 01:18:13;;;;;;;49.47;23.43;;;2.60;99.90;;;;;;5010746;28;20038;-49
2022/12/05 01:20:40;;;;;;;45.00;22.10;;;2.60;99.90;;;;;;5011126;28;20030;-49
2022/12/05 01:23:06;;;;;;;45.87;20.03;;;2.60;99.90;;;;;;5010902;28;20064;-50
2022/12/05 01:25:32;;;;;;;48.87;22.97;;;2.70;99.90;;;;;;5010699;28;20103;-51
2022/12/05 01:27:58;;;;;;;48.87;23.10;;;2.70;99.90;;;;;;5009265;28;20042;-51
2022/12/05 01:30:24;;;;;;;48.43;23.03;;;2.60;99.90;;;;;;5010453;28;20048;-52
2022/12/05 01:32:50;;;;;;;49.50;23.50;;;2.50;99.90;;;;;;5010747;28;20052;-48
2022/12/05 01:35:15;;;;;;;43.70;22.87;;;2.60;99.90;;;;;;5010664;28;20065;-50
2022/12/05 01:37:41;;;;;;;48.60;23.23;;;2.50;99.90;;;;;;5010522;28;20121;-50
2022/12/05 01:40:08;;;;;;;49.30;22.97;;;2.50;99.90;;;;;;5010422;28;20109;-49
2022/12/05 01:42:34;;;;;;;49.00;23.50;;;2.50;99.90;;;;;;5010644;28;20037;-51
2022/12/05 01:45:11;;;;;;;48.83;23.53;;;2.50;99.90;;;;;;5010681;28;20038;-49
2022/12/05 01:47:37;;;;;;;51.70;25.23;;;2.60;99.90;;;;;;5010349;28;20029;-52
2022/12/05 01:50:04;;;;;;;49.23;23.60;;;2.60;99.90;;;;;;5009211;28;20482;-51
2022/12/05 01:52:32;;;;;;;48.80;24.10;;;2.60;99.90;;;;;;5010589;28;20034;-50
2022/12/05 01:55:03;;;;;;;52.43;25.70;;;2.60;99.90;;;;;;5010464;28;20403;-48
2022/12/05 01:57:30;;;;;;;54.13;24.70;;;2.50;99.90;;;;;;5010369;28;20045;-48
2022/12/05 02:00:01;;;;;;;50.50;25.27;;;2.60;99.90;;;;;;5010332;28;20028;-48
2022/12/05 02:02:40;;;;;;;49.47;24.30;;;2.60;99.90;;;;;;5010446;28;20034;-52
2022/12/05 02:05:17;;;;;;;46.73;24.13;;;2.60;99.90;;;;;;5010474;28;20034;-52
2022/12/05 02:07:44;;;;;;;52.83;24.60;;;2.60;99.90;;;;;;5010186;28;20460;-52
2022/12/05 02:10:10;;;;;;;49.20;23.90;;;2.60;99.90;;;;;;5010199;28;20034;-54
2022/12/05 02:12:37;;;;;;;53.57;24.67;;;2.60;99.90;;;;;;5010393;28;20033;-50
2022/12/05 02:15:20;;;;;;;49.70;24.93;;;2.60;99.90;;;;;;5010551;28;20030;-49
2022/12/05 02:17:55;;;;;;;55.30;26.07;;;2.60;99.90;;;;;;5010116;28;20072;-49
2022/12/05 02:20:31;;;;;;;50.00;24.20;;;2.60;99.90;;;;;;5010246;28;20467;-47
2022/12/05 02:23:20;;;;;;;48.30;24.50;;;2.60;99.90;;;;;;5010487;28;20030;-51
2022/12/05 02:26:15;;;;;;;49.47;24.43;;;2.60;99.90;;;;;;5012420;28;20443;-49
2022/12/05 02:28:59;;;;;;;52.77;25.63;;;2.60;99.90;;;;;;5013445;28;20453;-48
2022/12/05 02:31:50;;;;;;;51.13;23.70;;;2.60;99.90;;;;;;5013824;28;20026;-48
2022/12/05 02:34:33;;;;;;;50.07;24.40;;;2.60;99.90;;;;;;5014132;28;20559;-47
2022/12/05 02:37:07;;;;;;;52.57;23.97;;;2.60;99.90;;;;;;5013624;28;20037;-51
2022/12/05 02:39:44;;;;;;;51.60;24.40;;;2.60;99.90;;;;;;5012420;28;20475;-49
2022/12/05 02:42:19;;;;;;;50.50;25.13;;;2.60;99.90;;;;;;5013710;28;20125;-52
2022/12/05 02:44:51;;;;;;;49.10;24.63;;;2.60;99.90;;;;;;5013465;28;20026;-48
2022/12/05 02:47:21;;;;;;;47.93;23.90;;;2.60;99.90;;;;;;5013234;28;20073;-50
2022/12/05 02:49:48;;;;;;;50.77;24.80;;;2.60;99.90;;;;;;5013261;28;20079;-51
2022/12/05 02:52:16;;;;;;;53.57;25.57;;;2.60;99.90;;;;;;5013537;28;20164;-53
2022/12/05 02:54:46;;;;;;;49.73;25.70;;;2.60;99.90;;;;;;5013783;28;20030;-54
2022/12/05 02:57:13;;;;;;;56.67;25.57;;;2.50;99.90;;;;;;5013141;28;20045;-52
2022/12/05 02:59:39;;;;;;;51.60;25.53;;;2.50;99.90;;;;;;5013091;28;20095;-53
2022/12/05 03:02:07;;;;;;;54.60;25.80;;;2.50;99.90;;;;;;5013470;28;20487;-49
2022/12/05 03:04:34;;;;;;;56.63;25.70;;;2.60;99.90;;;;;;5013189;28;20095;-50
2022/12/05 03:07:05;;;;;;;54.30;25.83;;;2.60;99.90;;;;;;5012976;28;20026;-50
2022/12/05 03:09:53;;;;;;;57.53;26.80;;;2.60;99.90;;;;;;5012931;28;20033;-49
2022/12/05 03:12:27;;;;;;;56.50;26.67;;;2.60;99.90;;;;;;5013389;28;20104;-50
2022/12/05 03:15:04;;;;;;;45.33;19.87;;;2.60;99.90;;;;;;5013019;28;20034;-50
2022/12/05 03:17:43;;;;;;;55.77;25.33;;;2.70;99.90;;;;;;5012718;28;20042;-48
2022/12/05 03:20:09;;;;;;;;;;;2.70;99.90;;;;;;5013244;28;20034;-51
2022/12/05 03:22:45;;;;;;;53.03;24.47;;;2.70;99.90;;;;;;5013005;28;20063;-49
2022/12/05 03:25:12;;;;;;;54.50;24.83;;;2.70;99.90;;;;;;5012821;28;20042;-48
2022/12/05 03:28:03;;;;;;;51.97;25.03;;;2.70;99.90;;;;;;5012429;28;20033;-50
2022/12/05 03:30:34;;;;;;;56.77;23.90;;;2.60;99.90;;;;;;5012459;28;20072;-48
2022/12/05 03:33:15;;;;;;;55.80;24.60;;;2.60;99.90;;;;;;5013013;28;20038;-47
2022/12/05 03:36:01;;;;;;;54.20;23.97;;;2.60;99.90;;;;;;5012216;28;20030;-48
2022/12/05 03:38:29;;;;;;;51.40;24.07;;;2.60;99.90;;;;;;5012523;28;20069;-48
2022/12/05 03:41:10;;;;;;;57.13;25.03;;;2.60;99.90;;;;;;5012494;28;20034;-49
2022/12/05 03:44:00;;;;;;;58.23;25.43;;;2.50;99.90;;;;;;5012694;28;20113;-48
2022/12/05 03:46:38;;;;;;;56.33;25.43;;;2.50;99.90;;;;;;5012094;28;20026;-51
2022/12/05 03:49:10;;;;;;;59.30;24.45;;;2.40;99.90;;;;;;5012191;28;20479;-51
2022/12/05 03:51:54;;;;;;;59.87;26.27;;;2.40;99.90;;;;;;5012248;28;20597;-48
2022/12/05 03:54:23;;;;;;;60.20;26.60;;;2.40;99.90;;;;;;5011089;28;20088;-50
2022/12/05 03:57:08;;;;;;;62.37;26.50;;;2.40;99.90;;;;;;5012000;28;20084;-47
2022/12/05 03:59:55;;;;;;;59.13;26.17;;;2.40;99.90;;;;;;5012003;28;20495;-49
2022/12/05 04:02:27;;;;;;;58.13;26.23;;;2.40;99.90;;;;;;5012202;28;20490;-49
2022/12/05 04:05:12;;;;;;;59.53;24.73;;;2.50;99.90;;;;;;5011937;28;20033;-47
2022/12/05 04:07:40;;;;;;;56.57;25.03;;;2.40;99.90;;;;;;5011817;28;20034;-50
2022/12/05 04:10:14;;;;;;;57.20;26.03;;;2.40;99.90;;;;;;5011787;28;20088;-46
2022/12/05 04:12:42;;;;;;;55.77;25.23;;;2.40;99.90;;;;;;5011897;28;20048;-52
2022/12/05 04:15:14;;;;;;;55.67;25.20;;;2.50;99.90;;;;;;5011994;28;20442;-47
2022/12/05 04:17:50;;;;;;;50.27;24.07;;;2.50;99.90;;;;;;5011556;28;20041;-46
2022/12/05 04:23:25;;;;;;;51.50;24.33;;;2.60;99.90;;;;;;5011777;28;20088;-47
2022/12/05 04:26:08;;;;;;;53.43;24.17;;;2.50;99.90;;;;;;5011579;28;20030;-47
2022/12/05 04:28:41;;;;;;;52.40;24.00;;;2.60;99.90;;;;;;5011249;28;20041;-50
2022/12/05 04:31:18;;;;;;;50.93;24.63;;;2.60;99.90;;;;;;5011554;28;20105;-49
2022/12/05 04:33:55;;;;;;;50.90;24.17;;;2.60;99.90;;;;;;5011594;28;20033;-52
2022/12/05 04:36:48;;;;;;;52.27;23.27;;;2.60;99.90;;;;;;5011386;28;20083;-48
2022/12/05 04:39:33;;;;;;;48.00;23.00;;;2.60;99.90;;;;;;5011193;28;20034;-50
2022/12/05 04:42:09;;;;;;;50.27;23.03;;;2.60;99.90;;;;;;5011658;28;20088;-50
2022/12/05 04:44:43;;;;;;;50.10;23.37;;;2.50;99.90;;;;;;5011336;28;20034;-47
2022/12/05 04:47:11;;;;;;;50.63;23.30;;;2.60;99.90;;;;;;5010771;28;20026;-47
2022/12/05 04:49:39;;;;;;;54.57;23.87;;;2.60;99.90;;;;;;5010835;28;20057;-47
2022/12/05 04:52:09;;;;;;;50.07;22.90;;;2.60;99.90;;;;;;5011318;28;20064;-46
2022/12/05 04:54:56;;;;;;;49.87;24.90;;;2.60;99.90;;;;;;5011157;28;20022;-48
2022/12/05 04:57:34;;;;;;;52.77;23.93;;;2.60;99.90;;;;;;5011444;28;20430;-52
2022/12/05 05:00:00;;;;;;;54.73;23.93;;;2.70;99.90;;;;;;5010762;28;20083;-51
2022/12/05 05:02:43;;;;;;;51.47;23.53;;;2.60;99.90;;;;;;5011069;28;20029;-51
2022/12/05 05:05:10;;;;;;;51.53;23.87;;;2.70;99.90;;;;;;5011131;28;20034;-51
2022/12/05 05:07:46;;;;;;;54.27;24.47;;;2.70;99.90;;;;;;5010672;28;20057;-52
2022/12/05 05:10:16;;;;;;;53.20;24.30;;;2.70;99.90;;;;;;5010680;28;20030;-51
2022/12/05 05:12:42;;;;;;;54.43;23.97;;;2.70;99.90;;;;;;5010922;28;20030;-48
2022/12/05 05:15:08;;;;;;;55.03;24.80;;;2.70;99.90;;;;;;5011023;28;20084;-47
2022/12/05 05:17:34;;;;;;;54.20;25.03;;;2.70;99.90;;;;;;5010715;28;20069;-48
2022/12/05 05:22:47;;;;;;;55.63;25.17;;;2.70;99.90;;;;;;5010902;28;20092;-48
2022/12/05 05:25:12;;;;;;;54.45;24.45;;;2.70;99.90;;;;;;5010740;28;20456;-48
2022/12/05 05:27:38;;;;;;;57.80;26.70;;;2.60;99.90;;;;;;5010629;28;20116;-47
2022/12/05 05:30:05;;;;;;;59.03;26.10;;;2.60;99.90;;;;;;5010597;28;20037;-47
2022/12/05 05:32:32;;;;;;;58.23;26.10;;;2.60;99.90;;;;;;5010980;28;20398;-50
2022/12/05 05:34:57;;;;;;;58.43;25.40;;;2.50;99.90;;;;;;5010752;28;20029;-51
2022/12/05 05:37:23;;;;;;;59.00;26.53;;;2.60;99.90;;;;;;5010506;28;20418;-51
2022/12/05 05:39:49;;;;;;;64.67;26.97;;;2.60;99.90;;;;;;5009038;28;20080;-48
2022/12/05 05:42:14;;;;;;;57.23;25.37;;;2.60;99.90;;;;;;5010734;28;20034;-48
2022/12/05 05:44:40;;;;;;;63.50;26.93;;;2.60;99.90;;;;;;5010719;28;20065;-47
2022/12/05 05:47:06;;;;;;;54.67;25.40;;;2.60;99.90;;;;;;5010479;28;20075;-47
2022/12/05 05:49:31;;;;;;;55.20;24.43;;;2.60;99.90;;;;;;5010449;28;20033;-48
2022/12/05 05:51:57;;;;;;;55.47;23.67;;;2.60;99.90;;;;;;5010582;28;20053;-49
2022/12/05 05:54:23;;;;;;;57.37;26.23;;;2.60;99.90;;;;;;5010346;28;20026;-47
2022/12/05 05:56:48;;;;;;;55.47;23.97;;;2.60;99.90;;;;;;5010543;28;20117;-52
2022/12/05 05:59:14;;;;;;;57.10;24.40;;;2.60;99.90;;;;;;5011679;28;20034;-50
2022/12/05 06:01:40;;;;;;;52.27;24.77;;;2.60;99.90;;;;;;5014747;28;20103;-52
2022/12/05 06:04:06;;;;;;;55.40;24.37;;;2.60;99.90;;;;;;5014405;28;20486;-52
2022/12/05 06:06:32;;;;;;;61.50;25.77;;;2.60;99.90;;;;;;5014450;28;20036;-52
2022/12/05 06:08:58;;;;;;;51.23;24.03;;;2.60;99.90;;;;;;5013805;28;20030;-51
2022/12/05 06:11:25;;;;;;;53.37;25.27;;;2.60;99.90;;;;;;5014118;28;20470;-54
2022/12/05 06:13:52;;;;;;;59.07;24.90;;;2.50;99.90;;;;;;5014150;28;20038;-52
2022/12/05 06:16:19;;;;;;;52.60;23.97;;;2.60;99.90;;;;;;5026312;23;20050;-47
2022/12/05 06:18:45;;;;;;;51.93;24.40;;;2.60;99.90;;;;;;5013468;28;20030;-45
2022/12/05 06:21:11;;;;;;;52.57;24.63;;;2.60;99.90;;;;;;5013890;28;20104;-47
2022/12/05 06:23:38;;;;;;;57.53;25.60;;;2.60;99.90;;;;;;5014218;28;20030;-45
2022/12/05 06:26:05;;;;;;;50.07;23.83;;;2.60;99.90;;;;;;5013767;28;20084;-49
2022/12/05 06:28:31;;;;;;;48.87;23.10;;;2.60;99.90;;;;;;5013512;28;20038;-48
2022/12/05 06:30:57;;;;;;;51.57;23.77;;;2.60;99.90;;;;;;5013755;28;20030;-48
2022/12/05 06:33:23;;;;;;;52.63;24.47;;;2.50;99.90;;;;;;5013554;28;20482;-46
2022/12/05 06:36:00;;;;;;;53.67;25.20;;;2.50;99.90;;;;;;5013480;28;20045;-45
2022/12/05 06:38:26;;;;;;;49.80;23.70;;;2.50;99.90;;;;;;5013335;28;20033;-47
2022/12/05 06:40:52;;;;;;;50.57;23.57;;;2.50;99.90;;;;;;5013259;28;20176;-45
2022/12/05 06:43:17;;;;;;;53.57;23.87;;;2.50;99.90;;;;;;5013456;28;20033;-46
2022/12/05 06:45:43;;;;;;;51.53;23.03;;;2.50;99.90;;;;;;5013484;28;20030;-47
2022/12/05 06:48:09;;;;;;;55.03;22.70;;;2.50;99.90;;;;;;5013678;28;20033;-49
2022/12/05 06:50:34;;;;;;;54.77;24.93;;;2.50;99.90;;;;;;5013479;28;20459;-47
2022/12/05 06:53:00;;;;;;;49.67;23.23;;;2.40;99.90;;;;;;5013202;28;20018;-49
2022/12/05 06:55:26;;;;;;;52.23;23.87;;;2.40;99.90;;;;;;5013378;28;20113;-47
2022/12/05 06:57:52;;;;;;;50.83;24.10;;;2.40;99.90;;;;;;5013135;28;20038;-46
2022/12/05 07:03:02;;;;;;;50.57;23.53;;;2.40;99.90;;;;;;5013048;28;20048;-46
2022/12/05 07:05:28;;;;;;;50.40;24.20;;;2.40;99.90;;;;;;5013182;28;20030;-46
2022/12/05 07:07:53;;;;;;;49.23;22.47;;;2.40;99.90;;;;;;5012925;28;20088;-49
2022/12/05 07:10:20;;;;;;;50.63;24.03;;;2.40;99.90;;;;;;5012093;28;20510;-46
2022/12/05 07:12:46;;;;;;;51.93;23.57;;;2.40;99.90;;;;;;5012868;28;20168;-49
2022/12/05 07:15:12;;;;;;;49.70;23.03;;;2.40;99.90;;;;;;5012586;28;20068;-45
2022/12/05 07:17:38;;;;;;;52.30;23.20;;;2.30;99.90;;;;;;5012554;28;20470;-45
2022/12/05 07:20:07;;;;;;;52.07;23.23;;;2.30;99.90;;;;;;5012506;28;20103;-44
2022/12/05 07:22:35;;;;;;;48.17;23.17;;;2.40;99.90;;;;;;5012711;28;20121;-50
2022/12/05 07:25:00;;;;;;;47.53;21.50;;;2.40;99.90;;;;;;5012717;28;20429;-47
2022/12/05 07:27:26;;;;;;;47.57;22.13;;;2.40;99.90;;;;;;5012432;28;20116;-51
2022/12/05 07:29:52;;;;;;;45.43;22.13;;;2.40;99.90;;;;;;5012487;28;20056;-47
2022/12/05 07:32:17;;;;;;;46.13;22.23;;;2.40;99.90;;;;;;5012438;28;20036;-50
2022/12/05 07:34:43;;;;;;;41.43;20.77;;;2.40;99.90;;;;;;5012477;28;20033;-49
2022/12/05 07:37:09;;;;;;;44.27;21.97;;;2.40;99.90;;;;;;5012205;28;20464;-50
2022/12/05 07:39:34;;;;;;;43.90;20.53;;;2.50;99.90;;;;;;5012204;28;20033;-45
2022/12/05 07:42:00;;;;;;;44.97;21.20;;;2.50;99.90;;;;;;5012731;28;20030;-48
2022/12/05 07:44:26;;;;;;;41.13;21.10;;;2.50;99.90;;;;;;5012421;28;20479;-46
2022/12/05 07:46:51;;;;;;;42.27;20.83;;;2.40;99.90;;;;;;5010680;28;20041;-48
2022/12/05 07:49:17;;;;;;;40.50;20.07;;;2.40;99.90;;;;;;5012209;28;20038;-48
2022/12/05 07:51:43;;;;;;;43.90;19.13;;;2.40;99.90;;;;;;5011537;28;20034;-49
2022/12/05 07:54:09;;;;;;;46.40;19.57;;;2.40;99.90;;;;;;5012143;28;20093;-52
2022/12/05 07:56:34;;;;;;;39.43;19.57;;;2.40;99.90;;;;;;5011979;28;20475;-52
2022/12/05 07:59:00;;;;;;;40.97;20.07;;;2.40;99.90;;;;;;5010458;28;20042;-52
2022/12/05 08:01:28;;;;;;;40.50;20.10;;;2.30;99.90;;;;;;5011955;28;20125;-54
2022/12/05 08:03:56;;;;;;;42.23;19.70;;;2.40;99.90;;;;;;5010052;28;20038;-50
2022/12/05 08:06:25;;;;;;;45.93;20.33;;;2.40;99.90;;;;;;5011310;28;20406;-51
2022/12/05 08:08:51;;;;;;;45.17;21.42;;;2.30;99.90;;;;;;5011455;28;20121;-47
2022/12/05 08:11:22;;;;;;;35.67;19.27;;;2.40;99.90;;;;;;5011392;28;20025;-44
2022/12/05 08:13:49;;;;;;;38.10;19.33;;;2.30;99.90;;;;;;5011779;28;20034;-50
2022/12/05 08:16:17;;;;;;;36.67;18.63;;;2.30;99.90;;;;;;5011187;28;20084;-46
2022/12/05 08:18:44;;;;;;;33.90;18.13;;;2.20;99.90;;;;;;5011541;28;20057;-49
2022/12/05 08:21:15;;;;;;;32.90;17.77;;;2.20;99.90;;;;;;5011237;28;20499;-47
2022/12/05 08:23:42;;;;;;;35.07;17.30;;;2.10;99.90;;;;;;5011910;28;20044;-48
2022/12/05 08:26:34;;;;;;;34.97;17.30;;;2.10;99.90;;;;;;5011222;28;20037;-50
2022/12/05 08:29:03;;;;;;;36.17;17.07;;;2.00;99.90;;;;;;5010277;28;20089;-50
2022/12/05 08:31:32;;;;;;;31.45;16.98;;;2.10;99.90;;;;;;5011084;28;20618;-51
2022/12/05 08:33:59;;;;;;;32.92;17.15;;;2.10;99.90;;;;;;5011414;28;20036;-51
2022/12/05 08:36:27;;;;;;;40.10;18.43;;;2.10;99.90;;;;;;5010979;28;20030;-46
2022/12/05 08:38:57;;;;;;;29.80;16.77;;;2.00;99.90;;;;;;5011120;28;20049;-51
2022/12/05 08:41:27;;;;;;;29.20;16.53;;;2.00;99.90;;;;;;5011513;28;20088;-46
2022/12/05 08:43:53;;;;;;;;;;;1.90;99.90;;;;;;5011785;28;20044;-50
2022/12/05 08:46:19;;;;;;;29.97;16.00;;;1.90;99.90;;;;;;5010188;28;19909;-50
2022/12/05 08:48:45;;;;;;;27.13;15.13;;;1.90;99.90;;;;;;5010914;28;20380;-50
2022/12/05 08:51:12;;;;;;;29.23;16.23;;;1.90;99.90;;;;;;5011092;28;20036;-47
2022/12/05 08:53:38;;;;;;;30.23;15.53;;;1.90;99.90;;;;;;5011062;28;20483;-51
2022/12/05 08:56:06;;;;;;;30.60;15.93;;;1.80;99.90;;;;;;5011024;28;20048;-50
2022/12/05 08:58:32;;;;;;;32.57;16.40;;;1.80;99.90;;;;;;5010716;28;20064;-46
2022/12/05 09:01:10;;;;;;;31.30;16.13;;;1.70;99.90;;;;;;5010995;28;20379;-48
2022/12/05 09:03:37;;;;;;;29.53;16.67;;;1.70;99.90;;;;;;5011007;28;20033;-51
2022/12/05 09:06:09;;;;;;;28.57;16.17;;;1.80;99.90;;;;;;5010656;28;20038;-51
2022/12/05 09:08:36;;;;;;;27.63;15.47;;;1.70;99.90;;;;;;5010395;28;20025;-50
2022/12/05 09:11:14;;;;;;;33.60;17.30;;;1.70;99.90;;;;;;5011171;28;20053;-48
2022/12/05 09:13:40;;;;;;;31.27;16.37;;;1.70;99.90;;;;;;5011013;28;20026;-46
2022/12/05 09:16:07;;;;;;;25.93;15.23;;;1.80;99.90;;;;;;5010684;28;20099;-47
2022/12/05 09:18:33;;;;;;;27.47;15.50;;;1.70;99.90;;;;;;5010295;28;20034;-51
2022/12/05 09:21:08;;;;;;;28.77;15.57;;;1.80;99.90;;;;;;5010922;28;20398;-45
2022/12/05 09:23:36;;;;;;;25.60;15.03;;;1.70;99.90;;;;;;5010660;28;20494;-48
2022/12/05 09:26:04;;;;;;;31.57;15.80;;;1.70;99.90;;;;;;5010567;28;20053;-47
2022/12/05 09:28:30;;;;;;;29.33;15.40;;;1.70;99.90;;;;;;5010304;28;20119;-51
2022/12/05 09:31:01;;;;;;;27.83;15.97;;;1.80;99.90;;;;;;5010936;28;20034;-50
2022/12/05 09:33:29;;;;;;;27.97;15.53;;;1.90;99.90;;;;;;5011495;28;20030;-51
2022/12/05 09:35:55;;;;;;;26.70;14.97;;;1.80;99.90;;;;;;5017047;28;20034;-51
2022/12/05 09:38:21;;;;;;;26.87;14.87;;;1.90;99.90;;;;;;5016928;28;20033;-51
2022/12/05 09:41:04;;;;;;;28.47;15.53;;;1.90;99.90;;;;;;5016940;28;20065;-51
2022/12/05 09:43:47;;;;;;;28.37;14.43;;;2.00;99.90;;;;;;5016892;28;20510;-49
2022/12/05 09:46:33;;;;;;;24.97;14.30;;;2.00;99.90;;;;;;5016921;28;20022;-51
2022/12/05 09:49:03;;;;;;;25.83;14.40;;;2.10;99.90;;;;;;5016698;28;20049;-51
2022/12/05 09:51:29;;;;;;;24.25;14.90;;;2.10;99.90;;;;;;5016986;28;20084;-48
2022/12/05 09:53:54;;;;;;;29.23;15.40;;;2.00;99.90;;;;;;5016919;28;20315;-49
2022/12/05 09:56:28;;;;;;;26.30;15.07;;;2.00;99.90;;;;;;5016671;28;20033;-50
2022/12/05 09:58:55;;;;;;;24.37;14.10;;;2.00;99.90;;;;;;5016785;28;20033;-50
2022/12/05 10:01:42;;;;;;;27.27;15.00;;;1.90;99.90;;;;;;5016845;28;20542;-50
2022/12/05 10:04:25;;;;;;;26.83;14.43;;;1.90;99.90;;;;;;5016785;28;20073;-51
2022/12/05 10:07:13;;;;;;;27.83;14.97;;;2.00;99.90;;;;;;5016666;28;20324;-51
2022/12/05 10:09:53;;;;;;;27.10;14.83;;;2.00;99.90;;;;;;5016450;28;20034;-49
2022/12/05 10:12:22;;;;;;;25.53;15.00;;;2.10;99.90;;;;;;5017320;28;20129;-48
2022/12/05 10:14:58;;;;;;;30.15;15.30;;;2.10;99.90;;;;;;5016654;28;20034;-50
2022/12/05 10:17:34;;;;;;;28.60;15.27;;;2.10;99.90;;;;;;5016495;28;20124;-51
2022/12/05 10:20:08;;;;;;;25.87;14.97;;;2.10;99.90;;;;;;5015358;28;20483;-51
2022/12/05 10:22:46;;;;;;;27.90;16.07;;;2.10;99.90;;;;;;5016792;28;20201;-49
2022/12/05 10:25:16;;;;;;;27.87;16.27;;;2.10;99.90;;;;;;5017005;28;20382;-50
2022/12/05 10:27:55;;;;;;;29.20;16.77;;;2.10;99.90;;;;;;5016418;28;20084;-50
2022/12/05 10:30:22;;;;;;;;;;;2.20;99.90;;;;;;5017095;28;20033;-45
2022/12/05 10:33:12;;;;;;;30.43;17.63;;;2.20;99.90;;;;;;5016932;28;19924;-51
2022/12/05 10:35:40;;;;;;;32.75;17.25;;;2.20;99.90;;;;;;5015230;28;20046;-50
2022/12/05 10:38:22;;;;;;;31.73;18.63;;;2.20;99.90;;;;;;5016467;28;20026;-45
2022/12/05 10:40:52;;;;;;;33.13;19.07;;;2.20;99.90;;;;;;5016487;28;20386;-49
2022/12/05 10:43:31;;;;;;;31.63;18.53;;;2.20;99.90;;;;;;5016554;28;20179;-46
2022/12/05 10:45:57;;;;;;;35.92;19.75;;;2.10;99.90;;;;;;5013841;28;20434;-50
2022/12/05 10:48:24;;;;;;;33.80;20.20;;;2.20;99.90;;;;;;5013024;28;20403;-48
2022/12/05 10:50:55;;;;;;;34.23;19.37;;;2.30;99.90;;;;;;5012934;28;20064;-47
2022/12/05 10:53:26;;;;;;;35.20;18.47;;;2.30;99.90;;;;;;5013316;28;20034;-51
2022/12/05 10:55:52;;;;;;;32.60;17.90;;;2.20;99.90;;;;;;5013272;28;20034;-49
2022/12/05 10:58:26;;;;;;;33.37;18.57;;;2.20;99.90;;;;;;5012999;28;20049;-51
2022/12/05 11:00:56;;;;;;;31.67;17.77;;;2.20;99.90;;;;;;5013011;28;20117;-50
2022/12/05 11:03:32;;;;;;;30.07;18.30;;;2.20;99.90;;;;;;5013142;28;20033;-48
2022/12/05 11:06:23;;;;;;;31.07;17.63;;;2.20;99.90;;;;;;5013041;28;20128;-51
2022/12/05 11:08:55;;;;;;;30.03;17.00;;;2.20;99.90;;;;;;5012126;28;20045;-50
2022/12/05 11:11:32;;;;;;;32.07;18.03;;;2.20;99.90;;;;;;5012919;28;20046;-48
2022/12/05 11:14:19;;;;;;;29.63;17.70;;;2.30;99.90;;;;;;5011727;28;20026;-51
2022/12/05 11:16:54;;;;;;;31.37;18.33;;;2.30;99.90;;;;;;5012381;28;20492;-49
2022/12/05 11:19:20;;;;;;;27.30;16.70;;;2.40;99.90;;;;;;5012641;28;20042;-51
2022/12/05 11:21:47;;;;;;;29.03;16.37;;;2.20;99.90;;;;;;5012721;28;20109;-51
2022/12/05 11:24:27;;;;;;;27.23;17.17;;;2.10;99.90;;;;;;5012670;28;20041;-50
2022/12/05 11:26:53;;;;;;;30.77;17.77;;;2.20;99.90;;;;;;5012461;28;20546;-50
2022/12/05 11:29:29;;;;;;;30.40;18.27;;;2.20;99.90;;;;;;5012370;28;20077;-47
2022/12/05 11:31:54;;;;;;;27.33;16.83;;;2.30;99.90;;;;;;5012484;28;20482;-49
2022/12/05 11:34:24;;;;;;;29.27;17.07;;;2.20;99.90;;;;;;5012655;28;20067;-51
2022/12/05 11:37:03;;;;;;;28.53;16.97;;;2.10;99.90;;;;;;5012347;28;20038;-48
2022/12/05 11:39:30;;;;;;;31.70;17.33;;;2.00;99.90;;;;;;5012342;28;20410;-49
2022/12/05 11:42:11;;;;;;;29.77;18.17;;;1.90;99.90;;;;;;5012318;28;20045;-50
2022/12/05 11:44:48;;;;;;;29.10;17.53;;;1.90;99.90;;;;;;5012296;28;20498;-47
2022/12/05 11:47:30;;;;;;;29.10;17.63;;;2.00;99.90;;;;;;5012043;28;20076;-47
2022/12/05 11:50:35;;;;;;;28.77;16.93;;;1.90;99.90;;;;;;5011959;28;20044;-45
2022/12/05 11:53:09;;;;;;;27.37;16.27;;;1.90;99.90;;;;;;5012270;28;20030;-50
2022/12/05 11:55:49;;;;;;;25.77;16.90;;;1.90;99.90;;;;;;5012009;28;20037;-46
2022/12/05 11:58:28;;;;;;;27.97;17.50;;;1.90;99.90;;;;;;5011663;28;20077;-47
2022/12/05 12:01:25;;;;;;;30.15;18.45;;;2.00;99.90;;;;;;5011860;28;20038;-47
2022/12/05 12:04:12;;;;;;;29.90;17.27;;;2.10;99.90;;;;;;5012168;28;20065;-49
2022/12/05 12:07:06;;;;;;;28.67;17.60;;;2.00;99.90;;;;;;5011785;28;20406;-49
2022/12/05 12:10:09;;;;;;;26.87;16.47;;;2.00;99.90;;;;;;5011489;28;20498;-51
2022/12/05 12:13:01;;;;;;;28.87;16.47;;;2.10;99.90;;;;;;5011712;28;20119;-51
2022/12/05 12:16:05;;;;;;;26.97;17.37;;;2.00;99.90;;;;;;5025080;23;20030;-52
2022/12/05 12:18:53;;;;;;;31.80;18.73;;;1.90;99.90;;;;;;4991185;28;20079;-54
2022/12/05 12:21:33;;;;;;;37.33;21.13;;;1.80;99.90;;;;;;4992259;28;20491;-54
2022/12/05 12:24:32;;;;;;;41.73;22.43;;;1.90;99.90;;;;;;4992158;28;20041;-51
2022/12/05 12:27:20;;;;;;;36.10;20.10;;;1.90;99.90;;;;;;4991600;28;20050;-49
2022/12/05 12:30:02;;;;;;;35.53;19.50;;;1.90;99.90;;;;;;4991753;28;20065;-49
2022/12/05 12:33:06;;;;;;;31.07;18.77;;;1.80;99.90;;;;;;4991941;28;20057;-51
2022/12/05 12:35:50;;;;;;;33.10;19.83;;;1.70;99.90;;;;;;4991870;28;20037;-52
2022/12/05 12:38:51;;;;;;;34.23;19.97;;;1.80;99.90;;;;;;4991633;28;20114;-53
2022/12/05 12:41:37;;;;;;;35.30;19.50;;;1.80;99.90;;;;;;4993754;28;20108;-51
2022/12/05 12:44:58;;;;;;;30.27;18.53;;;1.70;99.90;;;;;;4991735;28;20034;-53
2022/12/05 12:47:32;;;;;;;33.07;19.47;;;1.60;99.90;;;;;;5008313;28;20065;-52
2022/12/05 12:50:13;;;;;;;33.13;19.33;;;1.70;99.90;;;;;;4992032;28;20055;-50
2022/12/05 12:53:31;;;;;;;33.63;19.60;;;1.70;99.90;;;;;;4991779;28;20080;-53
2022/12/05 12:56:12;;;;;;;29.87;17.73;;;1.80;99.90;;;;;;5000854;28;20034;-51
2022/12/05 12:59:29;;;;;;;29.17;16.83;;;1.70;99.90;;;;;;4991418;28;20034;-51
2022/12/05 13:02:08;;;;;;;32.03;17.40;;;1.70;99.90;;;;;;5006347;28;20204;-55
2022/12/05 13:04:58;;;;;;;27.60;17.47;;;1.50;99.90;;;;;;4991481;28;20038;-55
2022/12/05 13:08:10;;;;;;;31.43;17.83;;;1.50;99.90;;;;;;4991046;28;20042;-54
2022/12/05 13:10:42;;;;;;;28.87;17.70;;;1.50;99.90;;;;;;5027679;28;20049;-52
2022/12/05 13:13:20;;;;;;;28.67;17.47;;;1.50;99.90;;;;;;5028140;28;20425;-53
2022/12/05 13:15:55;;;;;;;30.17;18.10;;;1.60;99.90;;;;;;5006132;28;20042;-54